Terminal Aerodrome Forecast
Issued by NWS

Home | Current Version | Previous Version | Text Only | Print | Product List | Glossary On
Versions: 1 2 3 4 5 6 7 8 9 10 11 12 13 14 15 16 17 18 19 20 21 22 23 24 25 26 27
689
FTUS41 KOKX 111437 AAA
TAFTEB
TAF AMD
KTEB 111437Z 1115/1212 29019G28KT P6SM BKN050
     FM120300 30013G21KT P6SM FEW040
     FM120800 29009KT P6SM BKN250=

USA.gov is the U.S. government's official web portal to all federal, state and local government web resources and services.